sensor_id;sensor_type;location;lat;lon;timestamp;P1;durP1;ratioP1;P2;durP2;ratioP2
5999;SDS011;3028;49.468;7.694;2023-02-26T00:00:12;2.58;;;1.52;;
5999;SDS011;3028;49.468;7.694;2023-02-26T00:02:17;2.45;;;2.25;;
5999;SDS011;3028;49.468;7.694;2023-02-26T00:04:19;7.97;;;2.70;;
5999;SDS011;3028;49.468;7.694;2023-02-26T00:06:21;5.75;;;2.40;;
5999;SDS011;3028;49.468;7.694;2023-02-26T00:08:24;1.95;;;1.75;;
5999;SDS011;3028;49.468;7.694;2023-02-26T00:10:26;3.72;;;2.25;;
5999;SDS011;3028;49.468;7.694;2023-02-26T00:12:29;2.60;;;2.03;;
5999;SDS011;3028;49.468;7.694;2023-02-26T00:14:31;3.03;;;2.20;;
5999;SDS011;3028;49.468;7.694;2023-02-26T00:16:34;2.63;;;2.10;;
5999;SDS011;3028;49.468;7.694;2023-02-26T00:18:36;2.10;;;1.73;;
5999;SDS011;3028;49.468;7.694;2023-02-26T00:20:38;2.67;;;2.20;;
5999;SDS011;3028;49.468;7.694;2023-02-26T00:22:41;2.72;;;2.53;;
5999;SDS011;3028;49.468;7.694;2023-02-26T00:24:43;2.83;;;2.47;;
5999;SDS011;3028;49.468;7.694;2023-02-26T00:26:45;8.13;;;2.03;;
5999;SDS011;3028;49.468;7.694;2023-02-26T00:28:46;2.40;;;2.30;;
5999;SDS011;3028;49.468;7.694;2023-02-26T00:30:49;2.07;;;1.60;;
5999;SDS011;3028;49.468;7.694;2023-02-26T00:32:51;2.20;;;2.00;;
5999;SDS011;3028;49.468;7.694;2023-02-26T00:34:53;3.43;;;2.17;;
5999;SDS011;3028;49.468;7.694;2023-02-26T00:41:44;1.90;;;1.80;;
5999;SDS011;3028;49.468;7.694;2023-02-26T00:43:46;2.17;;;2.07;;
5999;SDS011;3028;49.468;7.694;2023-02-26T00:48:18;2.40;;;2.20;;
5999;SDS011;3028;49.468;7.694;2023-02-26T00:50:25;3.77;;;2.33;;
5999;SDS011;3028;49.468;7.694;2023-02-26T00:52:31;3.10;;;1.73;;
5999;SDS011;3028;49.468;7.694;2023-02-26T00:54:39;3.57;;;1.97;;
5999;SDS011;3028;49.468;7.694;2023-02-26T00:56:41;2.30;;;2.20;;
5999;SDS011;3028;49.468;7.694;2023-02-26T00:58:43;7.40;;;2.33;;
5999;SDS011;3028;49.468;7.694;2023-02-26T01:00:44;2.30;;;2.10;;
5999;SDS011;3028;49.468;7.694;2023-02-26T01:02:46;7.80;;;2.27;;
5999;SDS011;3028;49.468;7.694;2023-02-26T01:04:49;3.40;;;2.20;;
5999;SDS011;3028;49.468;7.694;2023-02-26T01:06:55;1.97;;;1.60;;
5999;SDS011;3028;49.468;7.694;2023-02-26T01:11:08;4.30;;;1.97;;
5999;SDS011;3028;49.468;7.694;2023-02-26T01:13:10;1.73;;;1.63;;
5999;SDS011;3028;49.468;7.694;2023-02-26T01:15:12;7.37;;;2.40;;
5999;SDS011;3028;49.468;7.694;2023-02-26T01:21:53;2.60;;;1.40;;
5999;SDS011;3028;49.468;7.694;2023-02-26T01:24:16;5.87;;;2.17;;
5999;SDS011;3028;49.468;7.694;2023-02-26T01:26:24;3.53;;;2.13;;
5999;SDS011;3028;49.468;7.694;2023-02-26T01:28:28;2.60;;;1.90;;
5999;SDS011;3028;49.468;7.694;2023-02-26T01:30:30;3.30;;;1.93;;
5999;SDS011;3028;49.468;7.694;2023-02-26T01:35:03;1.90;;;1.80;;
5999;SDS011;3028;49.468;7.694;2023-02-26T01:37:51;3.40;;;2.10;;
5999;SDS011;3028;49.468;7.694;2023-02-26T01:40:02;2.30;;;2.10;;
5999;SDS011;3028;49.468;7.694;2023-02-26T01:44:28;1.80;;;1.70;;
5999;SDS011;3028;49.468;7.694;2023-02-26T01:49:15;2.50;;;2.40;;
5999;SDS011;3028;49.468;7.694;2023-02-26T01:51:42;6.33;;;2.63;;
5999;SDS011;3028;49.468;7.694;2023-02-26T01:53:43;7.93;;;2.00;;
5999;SDS011;3028;49.468;7.694;2023-02-26T01:55:45;3.37;;;2.60;;
5999;SDS011;3028;49.468;7.694;2023-02-26T01:57:58;4.20;;;3.07;;
5999;SDS011;3028;49.468;7.694;2023-02-26T02:00:01;3.40;;;3.10;;
5999;SDS011;3028;49.468;7.694;2023-02-26T02:02:04;2.53;;;2.30;;
5999;SDS011;3028;49.468;7.694;2023-02-26T02:04:09;3.73;;;2.27;;
5999;SDS011;3028;49.468;7.694;2023-02-26T02:06:17;2.43;;;1.93;;
5999;SDS011;3028;49.468;7.694;2023-02-26T02:08:21;2.33;;;2.23;;
5999;SDS011;3028;49.468;7.694;2023-02-26T02:10:23;2.00;;;1.90;;
5999;SDS011;3028;49.468;7.694;2023-02-26T02:12:33;2.67;;;2.33;;
5999;SDS011;3028;49.468;7.694;2023-02-26T02:17:07;2.23;;;2.10;;
5999;SDS011;3028;49.468;7.694;2023-02-26T02:21:53;2.03;;;1.83;;
5999;SDS011;3028;49.468;7.694;2023-02-26T02:26:55;3.37;;;1.87;;
5999;SDS011;3028;49.468;7.694;2023-02-26T02:33:59;6.30;;;2.27;;
5999;SDS011;3028;49.468;7.694;2023-02-26T02:36:05;2.00;;;1.73;;
5999;SDS011;3028;49.468;7.694;2023-02-26T02:38:18;2.97;;;1.90;;
5999;SDS011;3028;49.468;7.694;2023-02-26T02:40:27;6.27;;;2.53;;
5999;SDS011;3028;49.468;7.694;2023-02-26T02:42:33;4.70;;;2.20;;
5999;SDS011;3028;49.468;7.694;2023-02-26T02:44:38;3.20;;;2.90;;
5999;SDS011;3028;49.468;7.694;2023-02-26T02:46:44;2.93;;;2.47;;
5999;SDS011;3028;49.468;7.694;2023-02-26T02:48:56;3.77;;;2.17;;
5999;SDS011;3028;49.468;7.694;2023-02-26T02:51:01;3.17;;;2.07;;
5999;SDS011;3028;49.468;7.694;2023-02-26T02:53:08;2.17;;;1.60;;
5999;SDS011;3028;49.468;7.694;2023-02-26T02:55:19;3.87;;;2.03;;
5999;SDS011;3028;49.468;7.694;2023-02-26T02:57:27;3.47;;;2.27;;
5999;SDS011;3028;49.468;7.694;2023-02-26T02:59:35;4.17;;;2.13;;
5999;SDS011;3028;49.468;7.694;2023-02-26T03:01:40;2.10;;;1.67;;
5999;SDS011;3028;49.468;7.694;2023-02-26T03:06:06;2.00;;;1.90;;
5999;SDS011;3028;49.468;7.694;2023-02-26T03:08:09;6.30;;;2.37;;
5999;SDS011;3028;49.468;7.694;2023-02-26T03:10:13;2.63;;;1.80;;
5999;SDS011;3028;49.468;7.694;2023-02-26T03:12:15;3.17;;;2.87;;
5999;SDS011;3028;49.468;7.694;2023-02-26T03:14:17;3.23;;;2.27;;
5999;SDS011;3028;49.468;7.694;2023-02-26T03:23:33;4.23;;;2.10;;
5999;SDS011;3028;49.468;7.694;2023-02-26T03:25:40;3.20;;;2.10;;
5999;SDS011;3028;49.468;7.694;2023-02-26T03:29:58;7.07;;;2.27;;
5999;SDS011;3028;49.468;7.694;2023-02-26T03:32:08;2.33;;;1.80;;
5999;SDS011;3028;49.468;7.694;2023-02-26T03:36:43;4.20;;;2.40;;
5999;SDS011;3028;49.468;7.694;2023-02-26T03:41:06;2.43;;;2.23;;
5999;SDS011;3028;49.468;7.694;2023-02-26T03:43:12;2.40;;;2.20;;
5999;SDS011;3028;49.468;7.694;2023-02-26T03:45:17;8.80;;;2.00;;
5999;SDS011;3028;49.468;7.694;2023-02-26T03:47:21;2.60;;;1.70;;
5999;SDS011;3028;49.468;7.694;2023-02-26T03:49:24;4.00;;;2.50;;
5999;SDS011;3028;49.468;7.694;2023-02-26T03:51:28;2.27;;;2.07;;
5999;SDS011;3028;49.468;7.694;2023-02-26T03:53:32;5.10;;;2.50;;
5999;SDS011;3028;49.468;7.694;2023-02-26T03:56:00;3.40;;;2.23;;
5999;SDS011;3028;49.468;7.694;2023-02-26T03:58:06;5.97;;;2.83;;
5999;SDS011;3028;49.468;7.694;2023-02-26T04:00:09;2.00;;;1.80;;
5999;SDS011;3028;49.468;7.694;2023-02-26T04:02:12;2.77;;;2.33;;
5999;SDS011;3028;49.468;7.694;2023-02-26T04:06:31;4.20;;;2.47;;
5999;SDS011;3028;49.468;7.694;2023-02-26T04:08:34;2.57;;;2.47;;
5999;SDS011;3028;49.468;7.694;2023-02-26T04:10:44;3.23;;;3.03;;
5999;SDS011;3028;49.468;7.694;2023-02-26T04:12:48;2.27;;;1.97;;
5999;SDS011;3028;49.468;7.694;2023-02-26T04:14:50;4.00;;;2.87;;
5999;SDS011;3028;49.468;7.694;2023-02-26T04:16:52;5.37;;;2.97;;
5999;SDS011;3028;49.468;7.694;2023-02-26T04:18:54;3.43;;;2.97;;
5999;SDS011;3028;49.468;7.694;2023-02-26T04:20:55;4.17;;;2.63;;
5999;SDS011;3028;49.468;7.694;2023-02-26T04:22:57;2.20;;;2.00;;
5999;SDS011;3028;49.468;7.694;2023-02-26T04:24:59;2.30;;;2.13;;
5999;SDS011;3028;49.468;7.694;2023-02-26T04:27:01;3.93;;;2.73;;
5999;SDS011;3028;49.468;7.694;2023-02-26T04:29:02;2.67;;;2.47;;
5999;SDS011;3028;49.468;7.694;2023-02-26T04:31:05;2.57;;;2.37;;
5999;SDS011;3028;49.468;7.694;2023-02-26T04:33:07;3.70;;;2.30;;
5999;SDS011;3028;49.468;7.694;2023-02-26T04:35:08;5.40;;;3.67;;
5999;SDS011;3028;49.468;7.694;2023-02-26T04:37:10;3.17;;;2.97;;
5999;SDS011;3028;49.468;7.694;2023-02-26T04:39:12;3.13;;;2.83;;
5999;SDS011;3028;49.468;7.694;2023-02-26T04:41:14;3.67;;;2.83;;
5999;SDS011;3028;49.468;7.694;2023-02-26T04:43:15;3.00;;;2.87;;
5999;SDS011;3028;49.468;7.694;2023-02-26T04:45:18;2.63;;;2.50;;
5999;SDS011;3028;49.468;7.694;2023-02-26T04:47:19;6.17;;;2.33;;
5999;SDS011;3028;49.468;7.694;2023-02-26T04:49:21;2.50;;;2.10;;
5999;SDS011;3028;49.468;7.694;2023-02-26T04:51:23;2.63;;;2.37;;
5999;SDS011;3028;49.468;7.694;2023-02-26T04:53:25;3.83;;;2.70;;
5999;SDS011;3028;49.468;7.694;2023-02-26T04:55:27;3.50;;;3.20;;
5999;SDS011;3028;49.468;7.694;2023-02-26T04:57:28;2.87;;;2.67;;
5999;SDS011;3028;49.468;7.694;2023-02-26T04:59:30;2.70;;;2.50;;
5999;SDS011;3028;49.468;7.694;2023-02-26T05:01:31;4.53;;;2.40;;
5999;SDS011;3028;49.468;7.694;2023-02-26T05:03:33;2.37;;;2.27;;
5999;SDS011;3028;49.468;7.694;2023-02-26T05:05:35;4.43;;;2.57;;
5999;SDS011;3028;49.468;7.694;2023-02-26T05:07:37;4.10;;;2.23;;
5999;SDS011;3028;49.468;7.694;2023-02-26T05:09:38;1.80;;;1.67;;
5999;SDS011;3028;49.468;7.694;2023-02-26T05:11:40;3.27;;;2.80;;
5999;SDS011;3028;49.468;7.694;2023-02-26T05:13:42;5.30;;;2.73;;
5999;SDS011;3028;49.468;7.694;2023-02-26T05:15:44;2.73;;;2.53;;
5999;SDS011;3028;49.468;7.694;2023-02-26T05:17:46;4.17;;;3.07;;
5999;SDS011;3028;49.468;7.694;2023-02-26T05:19:47;2.20;;;2.00;;
5999;SDS011;3028;49.468;7.694;2023-02-26T05:21:49;6.13;;;2.60;;
5999;SDS011;3028;49.468;7.694;2023-02-26T05:23:51;5.37;;;3.17;;
5999;SDS011;3028;49.468;7.694;2023-02-26T05:25:55;3.37;;;3.17;;
5999;SDS011;3028;49.468;7.694;2023-02-26T05:27:58;2.30;;;2.10;;
5999;SDS011;3028;49.468;7.694;2023-02-26T05:30:00;3.03;;;2.47;;
5999;SDS011;3028;49.468;7.694;2023-02-26T05:32:02;5.00;;;1.90;;
5999;SDS011;3028;49.468;7.694;2023-02-26T05:34:04;2.80;;;2.47;;
5999;SDS011;3028;49.468;7.694;2023-02-26T05:36:06;8.17;;;2.50;;
5999;SDS011;3028;49.468;7.694;2023-02-26T05:38:07;4.57;;;3.33;;
5999;SDS011;3028;49.468;7.694;2023-02-26T05:40:09;3.57;;;2.80;;
5999;SDS011;3028;49.468;7.694;2023-02-26T05:42:11;3.87;;;3.57;;
5999;SDS011;3028;49.468;7.694;2023-02-26T05:44:13;4.20;;;3.47;;
5999;SDS011;3028;49.468;7.694;2023-02-26T05:46:15;6.20;;;3.17;;
5999;SDS011;3028;49.468;7.694;2023-02-26T05:48:17;3.60;;;2.60;;
5999;SDS011;3028;49.468;7.694;2023-02-26T05:50:19;2.80;;;2.60;;
5999;SDS011;3028;49.468;7.694;2023-02-26T05:52:20;4.40;;;2.80;;
5999;SDS011;3028;49.468;7.694;2023-02-26T05:54:22;3.90;;;2.60;;
5999;SDS011;3028;49.468;7.694;2023-02-26T05:56:24;3.80;;;3.40;;
5999;SDS011;3028;49.468;7.694;2023-02-26T05:58:26;4.43;;;3.00;;
5999;SDS011;3028;49.468;7.694;2023-02-26T06:00:28;2.90;;;2.47;;
5999;SDS011;3028;49.468;7.694;2023-02-26T06:02:30;3.37;;;2.17;;
5999;SDS011;3028;49.468;7.694;2023-02-26T06:04:31;3.70;;;2.90;;
5999;SDS011;3028;49.468;7.694;2023-02-26T06:06:33;2.77;;;2.63;;
5999;SDS011;3028;49.468;7.694;2023-02-26T06:08:38;3.07;;;2.77;;
5999;SDS011;3028;49.468;7.694;2023-02-26T06:10:41;5.83;;;2.17;;
5999;SDS011;3028;49.468;7.694;2023-02-26T06:12:43;2.83;;;2.60;;
5999;SDS011;3028;49.468;7.694;2023-02-26T06:14:44;7.20;;;2.87;;
5999;SDS011;3028;49.468;7.694;2023-02-26T06:16:46;5.57;;;2.63;;
5999;SDS011;3028;49.468;7.694;2023-02-26T06:18:48;2.67;;;2.47;;
5999;SDS011;3028;49.468;7.694;2023-02-26T06:20:50;2.27;;;2.13;;
5999;SDS011;3028;49.468;7.694;2023-02-26T06:22:51;4.63;;;2.80;;
5999;SDS011;3028;49.468;7.694;2023-02-26T06:24:53;3.23;;;2.50;;
5999;SDS011;3028;49.468;7.694;2023-02-26T06:26:55;2.90;;;2.70;;
5999;SDS011;3028;49.468;7.694;2023-02-26T06:28:57;5.67;;;3.23;;
5999;SDS011;3028;49.468;7.694;2023-02-26T06:30:59;4.63;;;2.83;;
5999;SDS011;3028;49.468;7.694;2023-02-26T06:33:01;2.97;;;2.83;;
5999;SDS011;3028;49.468;7.694;2023-02-26T06:35:03;2.60;;;2.40;;
5999;SDS011;3028;49.468;7.694;2023-02-26T06:37:06;4.93;;;3.43;;
5999;SDS011;3028;49.468;7.694;2023-02-26T06:39:08;3.23;;;2.60;;
5999;SDS011;3028;49.468;7.694;2023-02-26T06:41:10;4.37;;;3.20;;
5999;SDS011;3028;49.468;7.694;2023-02-26T06:43:12;2.80;;;2.60;;
5999;SDS011;3028;49.468;7.694;2023-02-26T06:45:14;5.03;;;2.97;;
5999;SDS011;3028;49.468;7.694;2023-02-26T06:47:15;2.37;;;2.27;;
5999;SDS011;3028;49.468;7.694;2023-02-26T06:49:17;2.67;;;2.57;;
5999;SDS011;3028;49.468;7.694;2023-02-26T06:51:19;3.23;;;2.63;;
5999;SDS011;3028;49.468;7.694;2023-02-26T06:53:21;4.27;;;2.60;;
5999;SDS011;3028;49.468;7.694;2023-02-26T06:55:22;2.83;;;2.67;;
5999;SDS011;3028;49.468;7.694;2023-02-26T06:57:27;2.37;;;2.27;;
5999;SDS011;3028;49.468;7.694;2023-02-26T06:59:29;2.43;;;2.23;;
5999;SDS011;3028;49.468;7.694;2023-02-26T07:01:31;2.93;;;2.60;;
5999;SDS011;3028;49.468;7.694;2023-02-26T07:03:33;3.33;;;3.10;;
5999;SDS011;3028;49.468;7.694;2023-02-26T07:05:34;5.17;;;3.83;;
5999;SDS011;3028;49.468;7.694;2023-02-26T07:07:36;2.90;;;2.13;;
5999;SDS011;3028;49.468;7.694;2023-02-26T07:09:38;3.70;;;2.70;;
5999;SDS011;3028;49.468;7.694;2023-02-26T07:11:40;6.37;;;4.23;;
5999;SDS011;3028;49.468;7.694;2023-02-26T07:13:41;2.80;;;2.60;;
5999;SDS011;3028;49.468;7.694;2023-02-26T07:15:43;3.67;;;2.33;;
5999;SDS011;3028;49.468;7.694;2023-02-26T07:17:46;2.47;;;2.10;;
5999;SDS011;3028;49.468;7.694;2023-02-26T07:19:48;2.93;;;2.20;;
5999;SDS011;3028;49.468;7.694;2023-02-26T07:21:51;3.53;;;2.57;;
5999;SDS011;3028;49.468;7.694;2023-02-26T07:23:55;3.30;;;2.43;;
5999;SDS011;3028;49.468;7.694;2023-02-26T07:26:00;2.40;;;2.20;;
5999;SDS011;3028;49.468;7.694;2023-02-26T07:28:03;2.30;;;2.20;;
5999;SDS011;3028;49.468;7.694;2023-02-26T07:30:05;2.50;;;2.30;;
5999;SDS011;3028;49.468;7.694;2023-02-26T07:32:07;2.97;;;2.77;;
5999;SDS011;3028;49.468;7.694;2023-02-26T07:34:09;3.97;;;2.37;;
5999;SDS011;3028;49.468;7.694;2023-02-26T07:36:12;3.20;;;3.00;;
5999;SDS011;3028;49.468;7.694;2023-02-26T07:38:14;3.00;;;2.80;;
5999;SDS011;3028;49.468;7.694;2023-02-26T07:40:17;1.80;;;1.70;;
5999;SDS011;3028;49.468;7.694;2023-02-26T07:42:19;3.97;;;2.90;;
5999;SDS011;3028;49.468;7.694;2023-02-26T07:44:21;3.27;;;2.93;;
5999;SDS011;3028;49.468;7.694;2023-02-26T07:46:22;5.13;;;2.67;;
5999;SDS011;3028;49.468;7.694;2023-02-26T07:48:25;2.70;;;2.50;;
5999;SDS011;3028;49.468;7.694;2023-02-26T07:50:26;2.60;;;2.40;;
5999;SDS011;3028;49.468;7.694;2023-02-26T07:52:28;4.07;;;2.47;;
5999;SDS011;3028;49.468;7.694;2023-02-26T07:54:30;3.20;;;3.00;;
5999;SDS011;3028;49.468;7.694;2023-02-26T07:56:32;2.07;;;1.97;;
5999;SDS011;3028;49.468;7.694;2023-02-26T07:58:34;2.77;;;2.17;;
5999;SDS011;3028;49.468;7.694;2023-02-26T08:00:35;7.63;;;3.10;;
5999;SDS011;3028;49.468;7.694;2023-02-26T08:02:37;3.33;;;2.37;;
5999;SDS011;3028;49.468;7.694;2023-02-26T08:04:38;1.90;;;1.80;;
5999;SDS011;3028;49.468;7.694;2023-02-26T08:06:40;2.87;;;2.67;;
5999;SDS011;3028;49.468;7.694;2023-02-26T08:08:42;3.57;;;3.03;;
5999;SDS011;3028;49.468;7.694;2023-02-26T08:10:44;2.27;;;1.67;;
5999;SDS011;3028;49.468;7.694;2023-02-26T08:12:45;2.40;;;2.20;;
5999;SDS011;3028;49.468;7.694;2023-02-26T08:14:47;1.83;;;1.73;;
5999;SDS011;3028;49.468;7.694;2023-02-26T08:16:49;2.00;;;1.90;;
5999;SDS011;3028;49.468;7.694;2023-02-26T08:18:51;1.73;;;1.63;;
5999;SDS011;3028;49.468;7.694;2023-02-26T08:20:53;2.20;;;2.10;;
5999;SDS011;3028;49.468;7.694;2023-02-26T08:22:54;3.40;;;2.97;;
5999;SDS011;3028;49.468;7.694;2023-02-26T08:24:56;3.57;;;2.30;;
5999;SDS011;3028;49.468;7.694;2023-02-26T08:26:58;2.30;;;1.90;;
5999;SDS011;3028;49.468;7.694;2023-02-26T08:28:59;2.60;;;2.07;;
5999;SDS011;3028;49.468;7.694;2023-02-26T08:31:01;2.80;;;2.43;;
5999;SDS011;3028;49.468;7.694;2023-02-26T08:33:03;2.27;;;2.07;;
5999;SDS011;3028;49.468;7.694;2023-02-26T08:35:05;2.47;;;2.27;;
5999;SDS011;3028;49.468;7.694;2023-02-26T08:37:07;2.90;;;2.67;;
5999;SDS011;3028;49.468;7.694;2023-02-26T08:39:12;3.63;;;2.37;;
5999;SDS011;3028;49.468;7.694;2023-02-26T08:41:13;2.10;;;1.90;;
5999;SDS011;3028;49.468;7.694;2023-02-26T08:43:15;1.93;;;1.83;;
5999;SDS011;3028;49.468;7.694;2023-02-26T08:45:17;2.80;;;2.60;;
5999;SDS011;3028;49.468;7.694;2023-02-26T08:47:18;2.13;;;1.83;;
5999;SDS011;3028;49.468;7.694;2023-02-26T08:49:29;2.67;;;2.43;;
5999;SDS011;3028;49.468;7.694;2023-02-26T08:51:31;1.77;;;1.67;;
5999;SDS011;3028;49.468;7.694;2023-02-26T08:53:33;1.80;;;1.70;;
5999;SDS011;3028;49.468;7.694;2023-02-26T08:55:34;1.90;;;1.80;;
5999;SDS011;3028;49.468;7.694;2023-02-26T08:57:36;6.13;;;2.10;;
5999;SDS011;3028;49.468;7.694;2023-02-26T08:59:38;2.37;;;2.17;;
5999;SDS011;3028;49.468;7.694;2023-02-26T09:01:40;2.57;;;2.10;;
5999;SDS011;3028;49.468;7.694;2023-02-26T09:03:41;2.33;;;2.10;;
5999;SDS011;3028;49.468;7.694;2023-02-26T09:05:44;3.40;;;3.10;;
5999;SDS011;3028;49.468;7.694;2023-02-26T09:07:46;4.67;;;2.63;;
5999;SDS011;3028;49.468;7.694;2023-02-26T09:09:47;2.60;;;2.40;;
5999;SDS011;3028;49.468;7.694;2023-02-26T09:11:49;3.27;;;3.03;;
5999;SDS011;3028;49.468;7.694;2023-02-26T09:13:51;5.23;;;3.23;;
5999;SDS011;3028;49.468;7.694;2023-02-26T09:15:53;2.20;;;2.10;;
5999;SDS011;3028;49.468;7.694;2023-02-26T09:17:54;4.17;;;3.00;;
5999;SDS011;3028;49.468;7.694;2023-02-26T09:19:56;1.80;;;1.70;;
5999;SDS011;3028;49.468;7.694;2023-02-26T09:21:58;3.03;;;2.93;;
5999;SDS011;3028;49.468;7.694;2023-02-26T09:23:59;9.40;;;3.93;;
5999;SDS011;3028;49.468;7.694;2023-02-26T09:26:01;3.27;;;3.17;;
5999;SDS011;3028;49.468;7.694;2023-02-26T09:28:04;2.10;;;2.00;;
5999;SDS011;3028;49.468;7.694;2023-02-26T09:30:09;2.53;;;2.33;;
5999;SDS011;3028;49.468;7.694;2023-02-26T09:32:13;2.60;;;2.33;;
5999;SDS011;3028;49.468;7.694;2023-02-26T09:34:14;1.93;;;1.83;;
5999;SDS011;3028;49.468;7.694;2023-02-26T09:36:16;2.53;;;1.97;;
5999;SDS011;3028;49.468;7.694;2023-02-26T09:38:18;1.93;;;1.83;;
5999;SDS011;3028;49.468;7.694;2023-02-26T09:40:22;7.00;;;1.77;;
5999;SDS011;3028;49.468;7.694;2023-02-26T09:44:49;2.90;;;2.67;;
5999;SDS011;3028;49.468;7.694;2023-02-26T09:49:06;1.50;;;1.40;;
5999;SDS011;3028;49.468;7.694;2023-02-26T09:51:40;1.67;;;1.57;;
5999;SDS011;3028;49.468;7.694;2023-02-26T09:53:43;2.53;;;1.90;;
5999;SDS011;3028;49.468;7.694;2023-02-26T09:55:45;2.10;;;2.00;;
5999;SDS011;3028;49.468;7.694;2023-02-26T09:57:51;3.30;;;1.97;;
5999;SDS011;3028;49.468;7.694;2023-02-26T09:59:58;1.97;;;1.87;;
5999;SDS011;3028;49.468;7.694;2023-02-26T10:02:03;3.57;;;2.30;;
5999;SDS011;3028;49.468;7.694;2023-02-26T10:06:22;1.83;;;1.73;;
5999;SDS011;3028;49.468;7.694;2023-02-26T10:08:28;1.90;;;1.70;;
5999;SDS011;3028;49.468;7.694;2023-02-26T10:12:45;5.00;;;2.40;;
5999;SDS011;3028;49.468;7.694;2023-02-26T10:16:55;2.00;;;1.90;;
5999;SDS011;3028;49.468;7.694;2023-02-26T10:19:03;1.60;;;1.50;;
5999;SDS011;3028;49.468;7.694;2023-02-26T10:21:27;2.17;;;2.00;;
5999;SDS011;3028;49.468;7.694;2023-02-26T10:25:47;1.90;;;1.80;;
5999;SDS011;3028;49.468;7.694;2023-02-26T10:27:55;3.37;;;3.03;;
5999;SDS011;3028;49.468;7.694;2023-02-26T10:30:03;2.83;;;2.60;;
5999;SDS011;3028;49.468;7.694;2023-02-26T10:39:31;2.27;;;2.07;;
5999;SDS011;3028;49.468;7.694;2023-02-26T10:41:43;1.90;;;1.80;;
5999;SDS011;3028;49.468;7.694;2023-02-26T10:43:50;2.67;;;1.40;;
5999;SDS011;3028;49.468;7.694;2023-02-26T10:46:00;2.60;;;1.60;;
5999;SDS011;3028;49.468;7.694;2023-02-26T10:50:30;1.50;;;1.40;;
5999;SDS011;3028;49.468;7.694;2023-02-26T10:52:32;1.97;;;1.87;;
5999;SDS011;3028;49.468;7.694;2023-02-26T10:54:37;1.60;;;1.50;;
5999;SDS011;3028;49.468;7.694;2023-02-26T10:56:45;2.13;;;2.03;;
5999;SDS011;3028;49.468;7.694;2023-02-26T10:58:47;2.40;;;2.13;;
5999;SDS011;3028;49.468;7.694;2023-02-26T11:00:50;1.80;;;1.70;;
5999;SDS011;3028;49.468;7.694;2023-02-26T11:02:54;1.63;;;1.53;;
5999;SDS011;3028;49.468;7.694;2023-02-26T11:04:56;2.10;;;1.63;;
5999;SDS011;3028;49.468;7.694;2023-02-26T11:07:08;1.87;;;1.73;;
5999;SDS011;3028;49.468;7.694;2023-02-26T11:09:13;1.73;;;1.63;;
5999;SDS011;3028;49.468;7.694;2023-02-26T11:14:04;4.90;;;2.13;;
5999;SDS011;3028;49.468;7.694;2023-02-26T11:16:11;9.23;;;1.43;;
5999;SDS011;3028;49.468;7.694;2023-02-26T11:18:16;1.88;;;1.77;;
5999;SDS011;3028;49.468;7.694;2023-02-26T11:22:26;1.80;;;1.60;;
5999;SDS011;3028;49.468;7.694;2023-02-26T11:24:30;2.10;;;1.20;;
5999;SDS011;3028;49.468;7.694;2023-02-26T11:26:42;2.03;;;1.93;;
5999;SDS011;3028;49.468;7.694;2023-02-26T11:28:47;1.87;;;1.47;;
5999;SDS011;3028;49.468;7.694;2023-02-26T11:30:50;1.60;;;1.50;;
5999;SDS011;3028;49.468;7.694;2023-02-26T11:32:56;3.23;;;2.20;;
5999;SDS011;3028;49.468;7.694;2023-02-26T11:34:58;2.03;;;1.93;;
5999;SDS011;3028;49.468;7.694;2023-02-26T11:37:00;2.60;;;1.70;;
5999;SDS011;3028;49.468;7.694;2023-02-26T11:39:15;1.87;;;1.77;;
5999;SDS011;3028;49.468;7.694;2023-02-26T11:41:19;1.80;;;1.80;;
5999;SDS011;3028;49.468;7.694;2023-02-26T11:43:25;1.70;;;1.60;;
5999;SDS011;3028;49.468;7.694;2023-02-26T11:45:32;2.33;;;2.07;;
5999;SDS011;3028;49.468;7.694;2023-02-26T11:47:35;1.80;;;1.70;;
5999;SDS011;3028;49.468;7.694;2023-02-26T11:49:40;1.57;;;1.47;;
5999;SDS011;3028;49.468;7.694;2023-02-26T11:51:45;1.35;;;1.25;;
5999;SDS011;3028;49.468;7.694;2023-02-26T11:55:57;3.43;;;1.70;;
5999;SDS011;3028;49.468;7.694;2023-02-26T11:58:03;2.55;;;1.88;;
5999;SDS011;3028;49.468;7.694;2023-02-26T12:00:34;1.98;;;1.77;;
5999;SDS011;3028;49.468;7.694;2023-02-26T12:02:34;2.10;;;1.60;;
5999;SDS011;3028;49.468;7.694;2023-02-26T12:04:43;2.33;;;2.13;;
5999;SDS011;3028;49.468;7.694;2023-02-26T12:06:47;1.80;;;1.70;;
5999;SDS011;3028;49.468;7.694;2023-02-26T12:08:50;1.60;;;1.50;;
5999;SDS011;3028;49.468;7.694;2023-02-26T12:11:04;2.40;;;1.57;;
5999;SDS011;3028;49.468;7.694;2023-02-26T12:13:16;1.77;;;1.67;;
5999;SDS011;3028;49.468;7.694;2023-02-26T12:15:26;2.87;;;2.20;;
5999;SDS011;3028;49.468;7.694;2023-02-26T12:17:52;1.53;;;1.30;;
5999;SDS011;3028;49.468;7.694;2023-02-26T12:30:50;2.23;;;2.10;;
5999;SDS011;3028;49.468;7.694;2023-02-26T12:32:27;1.85;;;1.75;;
5999;SDS011;3028;49.468;7.694;2023-02-26T12:34:43;2.25;;;1.88;;
5999;SDS011;3028;49.468;7.694;2023-02-26T12:41:43;1.38;;;1.35;;
5999;SDS011;3028;49.468;7.694;2023-02-26T12:46:58;2.47;;;1.67;;
5999;SDS011;3028;49.468;7.694;2023-02-26T12:57:04;2.37;;;1.90;;
5999;SDS011;3028;49.468;7.694;2023-02-26T13:05:47;1.65;;;1.55;;
5999;SDS011;3028;49.468;7.694;2023-02-26T13:20:16;1.95;;;1.27;;
5999;SDS011;3028;49.468;7.694;2023-02-26T13:22:23;1.33;;;1.25;;
5999;SDS011;3028;49.468;7.694;2023-02-26T13:24:33;1.52;;;1.00;;
5999;SDS011;3028;49.468;7.694;2023-02-26T13:26:39;1.02;;;1.02;;
5999;SDS011;3028;49.468;7.694;2023-02-26T13:28:43;1.25;;;1.10;;
5999;SDS011;3028;49.468;7.694;2023-02-26T13:30:49;1.05;;;1.05;;
5999;SDS011;3028;49.468;7.694;2023-02-26T13:33:17;0.95;;;0.95;;
5999;SDS011;3028;49.468;7.694;2023-02-26T13:35:34;1.42;;;1.38;;
5999;SDS011;3028;49.468;7.694;2023-02-26T13:37:40;2.00;;;1.75;;
5999;SDS011;3028;49.468;7.694;2023-02-26T13:50:59;1.50;;;1.15;;
5999;SDS011;3028;49.468;7.694;2023-02-26T13:55:48;1.48;;;1.10;;
5999;SDS011;3028;49.468;7.694;2023-02-26T13:57:50;0.95;;;0.95;;
5999;SDS011;3028;49.468;7.694;2023-02-26T14:08:44;1.25;;;1.15;;
5999;SDS011;3028;49.468;7.694;2023-02-26T14:11:03;0.95;;;0.95;;
5999;SDS011;3028;49.468;7.694;2023-02-26T14:13:19;1.50;;;1.20;;
5999;SDS011;3028;49.468;7.694;2023-02-26T14:15:27;0.80;;;0.80;;
5999;SDS011;3028;49.468;7.694;2023-02-26T14:17:38;1.15;;;1.15;;
5999;SDS011;3028;49.468;7.694;2023-02-26T14:21:47;0.95;;;0.95;;
5999;SDS011;3028;49.468;7.694;2023-02-26T14:23:49;0.80;;;0.80;;
5999;SDS011;3028;49.468;7.694;2023-02-26T14:26:00;0.80;;;0.80;;
5999;SDS011;3028;49.468;7.694;2023-02-26T14:30:29;1.25;;;1.08;;
5999;SDS011;3028;49.468;7.694;2023-02-26T14:32:44;0.93;;;0.93;;
5999;SDS011;3028;49.468;7.694;2023-02-26T14:34:51;2.60;;;1.10;;
5999;SDS011;3028;49.468;7.694;2023-02-26T14:36:59;0.80;;;0.80;;
5999;SDS011;3028;49.468;7.694;2023-02-26T14:39:07;0.90;;;0.90;;
5999;SDS011;3028;49.468;7.694;2023-02-26T14:41:31;1.83;;;1.35;;
5999;SDS011;3028;49.468;7.694;2023-02-26T14:43:42;1.45;;;1.35;;
5999;SDS011;3028;49.468;7.694;2023-02-26T14:45:46;1.48;;;1.33;;
5999;SDS011;3028;49.468;7.694;2023-02-26T14:47:49;1.10;;;1.00;;
5999;SDS011;3028;49.468;7.694;2023-02-26T14:49:51;1.50;;;1.40;;
5999;SDS011;3028;49.468;7.694;2023-02-26T14:57:02;1.00;;;1.00;;
5999;SDS011;3028;49.468;7.694;2023-02-26T15:03:55;1.05;;;1.00;;
5999;SDS011;3028;49.468;7.694;2023-02-26T15:15:46;1.10;;;1.10;;
5999;SDS011;3028;49.468;7.694;2023-02-26T15:25:03;1.20;;;1.10;;
5999;SDS011;3028;49.468;7.694;2023-02-26T15:27:08;3.03;;;1.10;;
5999;SDS011;3028;49.468;7.694;2023-02-26T15:29:14;1.08;;;1.08;;
5999;SDS011;3028;49.468;7.694;2023-02-26T15:31:18;1.80;;;1.30;;
5999;SDS011;3028;49.468;7.694;2023-02-26T15:33:22;1.10;;;1.00;;
5999;SDS011;3028;49.468;7.694;2023-02-26T15:35:28;1.10;;;1.10;;
5999;SDS011;3028;49.468;7.694;2023-02-26T15:37:31;1.10;;;1.10;;
5999;SDS011;3028;49.468;7.694;2023-02-26T15:39:36;1.37;;;1.27;;
5999;SDS011;3028;49.468;7.694;2023-02-26T15:41:37;1.00;;;1.00;;
5999;SDS011;3028;49.468;7.694;2023-02-26T15:43:42;1.50;;;1.50;;
5999;SDS011;3028;49.468;7.694;2023-02-26T15:45:54;1.75;;;1.65;;
5999;SDS011;3028;49.468;7.694;2023-02-26T15:47:58;2.50;;;2.07;;
5999;SDS011;3028;49.468;7.694;2023-02-26T15:50:01;2.63;;;1.73;;
5999;SDS011;3028;49.468;7.694;2023-02-26T15:52:03;1.00;;;1.00;;
5999;SDS011;3028;49.468;7.694;2023-02-26T15:54:06;2.47;;;2.27;;
5999;SDS011;3028;49.468;7.694;2023-02-26T15:56:19;4.73;;;3.67;;